Middlebury, Indiana
Current Conditions -  °F | °C
As of 4:53 PM on Thursday 18 Dec 2014 (Local Time) from KGSH Reporting Station
Overcast Overcast  
Wind Chill: 19°   Ceiling: 1300
Heat Index: 27°   Visibility: 8mi
Dew Point: 22°   Wind: 8mph
Humidity: 81%   Direction: 270°W
Pressure: 30.21"   Gusts: NA
Location:  41.68°N, 85.71°W
Report Text: KGSH 182153Z AUTO 27007KT 8SM OVC013 M03/M06 A3021 RMK AO2 SLP240 T10281056
Loading
Personal Weather Stations






























Interactive Weather Map New forecast layout! Learn more

10-Day Weather Forecast

Advertisements
Track Severe Weather on mobile